sensor_id;sensor_type;location;lat;lon;timestamp;P1;durP1;ratioP1;P2;durP2;ratioP2
6422;SDS011;3244;42.708;23.288;2023-01-28T00:02:07;5.23;;;4.83;;
6422;SDS011;3244;42.708;23.288;2023-01-28T00:04:33;4.67;;;4.33;;
6422;SDS011;3244;42.708;23.288;2023-01-28T00:07:00;5.70;;;5.17;;
6422;SDS011;3244;42.708;23.288;2023-01-28T00:09:27;4.77;;;4.33;;
6422;SDS011;3244;42.708;23.288;2023-01-28T00:11:54;4.83;;;4.43;;
6422;SDS011;3244;42.708;23.288;2023-01-28T00:14:22;4.73;;;4.33;;
6422;SDS011;3244;42.708;23.288;2023-01-28T00:16:48;4.47;;;4.07;;
6422;SDS011;3244;42.708;23.288;2023-01-28T00:19:15;3.90;;;3.60;;
6422;SDS011;3244;42.708;23.288;2023-01-28T00:21:42;4.77;;;4.40;;
6422;SDS011;3244;42.708;23.288;2023-01-28T00:24:09;5.50;;;4.10;;
6422;SDS011;3244;42.708;23.288;2023-01-28T00:26:36;3.60;;;3.40;;
6422;SDS011;3244;42.708;23.288;2023-01-28T00:29:02;4.63;;;4.30;;
6422;SDS011;3244;42.708;23.288;2023-01-28T00:31:30;4.97;;;4.57;;
6422;SDS011;3244;42.708;23.288;2023-01-28T00:33:58;5.10;;;4.47;;
6422;SDS011;3244;42.708;23.288;2023-01-28T00:36:25;4.60;;;4.30;;
6422;SDS011;3244;42.708;23.288;2023-01-28T00:38:53;4.50;;;4.13;;
6422;SDS011;3244;42.708;23.288;2023-01-28T00:41:21;4.20;;;3.90;;
6422;SDS011;3244;42.708;23.288;2023-01-28T00:43:49;4.37;;;4.03;;
6422;SDS011;3244;42.708;23.288;2023-01-28T00:46:17;5.03;;;4.53;;
6422;SDS011;3244;42.708;23.288;2023-01-28T00:48:45;4.53;;;4.23;;
6422;SDS011;3244;42.708;23.288;2023-01-28T00:51:13;5.10;;;4.70;;
6422;SDS011;3244;42.708;23.288;2023-01-28T00:53:42;5.23;;;4.83;;
6422;SDS011;3244;42.708;23.288;2023-01-28T00:56:11;5.17;;;4.77;;
6422;SDS011;3244;42.708;23.288;2023-01-28T00:58:39;6.03;;;5.43;;
6422;SDS011;3244;42.708;23.288;2023-01-28T01:01:07;5.47;;;4.97;;
6422;SDS011;3244;42.708;23.288;2023-01-28T01:03:34;5.47;;;5.07;;
6422;SDS011;3244;42.708;23.288;2023-01-28T01:06:02;5.13;;;4.73;;
6422;SDS011;3244;42.708;23.288;2023-01-28T01:08:30;5.60;;;5.10;;
6422;SDS011;3244;42.708;23.288;2023-01-28T01:11:00;6.17;;;5.63;;
6422;SDS011;3244;42.708;23.288;2023-01-28T01:13:27;5.30;;;4.93;;
6422;SDS011;3244;42.708;23.288;2023-01-28T01:16:00;5.57;;;5.10;;
6422;SDS011;3244;42.708;23.288;2023-01-28T01:18:27;5.30;;;4.90;;
6422;SDS011;3244;42.708;23.288;2023-01-28T01:20:55;5.80;;;5.40;;
6422;SDS011;3244;42.708;23.288;2023-01-28T01:23:24;5.63;;;5.07;;
6422;SDS011;3244;42.708;23.288;2023-01-28T01:25:51;5.27;;;4.87;;
6422;SDS011;3244;42.708;23.288;2023-01-28T01:28:18;6.33;;;5.73;;
6422;SDS011;3244;42.708;23.288;2023-01-28T01:30:46;5.40;;;5.00;;
6422;SDS011;3244;42.708;23.288;2023-01-28T01:33:14;4.80;;;4.50;;
6422;SDS011;3244;42.708;23.288;2023-01-28T01:35:42;5.37;;;4.97;;
6422;SDS011;3244;42.708;23.288;2023-01-28T01:38:09;5.60;;;5.20;;
6422;SDS011;3244;42.708;23.288;2023-01-28T01:40:37;5.10;;;4.70;;
6422;SDS011;3244;42.708;23.288;2023-01-28T01:43:11;5.70;;;5.20;;
6422;SDS011;3244;42.708;23.288;2023-01-28T01:45:41;5.73;;;5.33;;
6422;SDS011;3244;42.708;23.288;2023-01-28T01:48:11;5.60;;;5.20;;
6422;SDS011;3244;42.708;23.288;2023-01-28T01:50:42;6.43;;;5.90;;
6422;SDS011;3244;42.708;23.288;2023-01-28T01:53:13;5.30;;;4.90;;
6422;SDS011;3244;42.708;23.288;2023-01-28T01:55:45;5.73;;;5.23;;
6422;SDS011;3244;42.708;23.288;2023-01-28T01:58:15;5.27;;;4.83;;
6422;SDS011;3244;42.708;23.288;2023-01-28T02:00:45;5.83;;;5.33;;
6422;SDS011;3244;42.708;23.288;2023-01-28T02:03:11;5.67;;;5.17;;
6422;SDS011;3244;42.708;23.288;2023-01-28T02:05:41;5.07;;;4.67;;
6422;SDS011;3244;42.708;23.288;2023-01-28T02:08:07;5.57;;;5.17;;
6422;SDS011;3244;42.708;23.288;2023-01-28T02:10:48;5.53;;;5.03;;
6422;SDS011;3244;42.708;23.288;2023-01-28T02:13:18;5.03;;;4.63;;
6422;SDS011;3244;42.708;23.288;2023-01-28T02:15:48;4.70;;;4.40;;
6422;SDS011;3244;42.708;23.288;2023-01-28T02:18:15;6.03;;;4.90;;
6422;SDS011;3244;42.708;23.288;2023-01-28T02:20:47;4.60;;;4.20;;
6422;SDS011;3244;42.708;23.288;2023-01-28T02:23:42;5.43;;;4.97;;
6422;SDS011;3244;42.708;23.288;2023-01-28T02:26:32;5.67;;;5.17;;
6422;SDS011;3244;42.708;23.288;2023-01-28T02:29:14;12.23;;;4.97;;
6422;SDS011;3244;42.708;23.288;2023-01-28T02:31:48;4.73;;;4.40;;
6422;SDS011;3244;42.708;23.288;2023-01-28T02:34:22;4.23;;;3.93;;
6422;SDS011;3244;42.708;23.288;2023-01-28T02:37:01;5.50;;;5.00;;
6422;SDS011;3244;42.708;23.288;2023-01-28T02:39:34;4.80;;;4.40;;
6422;SDS011;3244;42.708;23.288;2023-01-28T02:42:06;4.77;;;4.47;;
6422;SDS011;3244;42.708;23.288;2023-01-28T02:44:39;4.70;;;4.23;;
6422;SDS011;3244;42.708;23.288;2023-01-28T02:47:08;5.50;;;5.03;;
6422;SDS011;3244;42.708;23.288;2023-01-28T02:49:53;5.50;;;4.73;;
6422;SDS011;3244;42.708;23.288;2023-01-28T02:52:28;4.87;;;4.53;;
6422;SDS011;3244;42.708;23.288;2023-01-28T02:55:20;4.77;;;4.37;;
6422;SDS011;3244;42.708;23.288;2023-01-28T02:57:57;7.10;;;4.77;;
6422;SDS011;3244;42.708;23.288;2023-01-28T03:00:32;4.87;;;4.47;;
6422;SDS011;3244;42.708;23.288;2023-01-28T03:03:07;8.03;;;3.93;;
6422;SDS011;3244;42.708;23.288;2023-01-28T03:05:43;4.87;;;4.57;;
6422;SDS011;3244;42.708;23.288;2023-01-28T03:08:29;4.43;;;4.03;;
6422;SDS011;3244;42.708;23.288;2023-01-28T03:11:16;4.80;;;4.40;;
6422;SDS011;3244;42.708;23.288;2023-01-28T03:14:01;5.03;;;4.63;;
6422;SDS011;3244;42.708;23.288;2023-01-28T03:16:46;4.73;;;4.30;;
6422;SDS011;3244;42.708;23.288;2023-01-28T03:19:33;4.63;;;4.17;;
6422;SDS011;3244;42.708;23.288;2023-01-28T03:22:17;4.50;;;4.20;;
6422;SDS011;3244;42.708;23.288;2023-01-28T03:25:02;4.77;;;4.40;;
6422;SDS011;3244;42.708;23.288;2023-01-28T03:27:47;4.93;;;4.57;;
6422;SDS011;3244;42.708;23.288;2023-01-28T03:30:39;5.57;;;4.27;;
6422;SDS011;3244;42.708;23.288;2023-01-28T03:33:28;4.73;;;4.33;;
6422;SDS011;3244;42.708;23.288;2023-01-28T03:36:14;4.90;;;4.50;;
6422;SDS011;3244;42.708;23.288;2023-01-28T03:38:59;5.33;;;4.93;;
6422;SDS011;3244;42.708;23.288;2023-01-28T03:41:26;4.47;;;4.17;;
6422;SDS011;3244;42.708;23.288;2023-01-28T03:43:52;5.00;;;4.63;;
6422;SDS011;3244;42.708;23.288;2023-01-28T03:46:20;5.60;;;5.20;;
6422;SDS011;3244;42.708;23.288;2023-01-28T03:48:47;5.07;;;4.50;;
6422;SDS011;3244;42.708;23.288;2023-01-28T03:51:14;5.27;;;4.93;;
6422;SDS011;3244;42.708;23.288;2023-01-28T03:53:41;6.07;;;4.87;;
6422;SDS011;3244;42.708;23.288;2023-01-28T03:56:08;4.77;;;4.37;;
6422;SDS011;3244;42.708;23.288;2023-01-28T03:58:42;4.83;;;4.53;;
6422;SDS011;3244;42.708;23.288;2023-01-28T04:01:16;5.07;;;4.67;;
6422;SDS011;3244;42.708;23.288;2023-01-28T04:03:43;5.23;;;4.80;;
6422;SDS011;3244;42.708;23.288;2023-01-28T04:06:12;5.10;;;4.73;;
6422;SDS011;3244;42.708;23.288;2023-01-28T04:08:38;5.13;;;4.73;;
6422;SDS011;3244;42.708;23.288;2023-01-28T04:11:10;4.87;;;4.47;;
6422;SDS011;3244;42.708;23.288;2023-01-28T04:13:40;7.07;;;4.80;;
6422;SDS011;3244;42.708;23.288;2023-01-28T04:16:07;5.10;;;4.70;;
6422;SDS011;3244;42.708;23.288;2023-01-28T04:18:34;4.10;;;3.80;;
6422;SDS011;3244;42.708;23.288;2023-01-28T04:21:01;4.67;;;4.27;;
6422;SDS011;3244;42.708;23.288;2023-01-28T04:23:29;3.90;;;3.67;;
6422;SDS011;3244;42.708;23.288;2023-01-28T04:25:56;4.27;;;3.97;;
6422;SDS011;3244;42.708;23.288;2023-01-28T04:28:22;4.83;;;4.43;;
6422;SDS011;3244;42.708;23.288;2023-01-28T04:30:50;4.47;;;4.17;;
6422;SDS011;3244;42.708;23.288;2023-01-28T04:33:17;5.43;;;4.93;;
6422;SDS011;3244;42.708;23.288;2023-01-28T04:35:44;5.67;;;5.00;;
6422;SDS011;3244;42.708;23.288;2023-01-28T04:38:11;4.73;;;4.37;;
6422;SDS011;3244;42.708;23.288;2023-01-28T04:40:39;5.23;;;4.80;;
6422;SDS011;3244;42.708;23.288;2023-01-28T04:43:06;4.63;;;4.33;;
6422;SDS011;3244;42.708;23.288;2023-01-28T04:45:32;5.50;;;5.03;;
6422;SDS011;3244;42.708;23.288;2023-01-28T04:47:59;6.93;;;4.87;;
6422;SDS011;3244;42.708;23.288;2023-01-28T04:50:26;6.03;;;5.53;;
6422;SDS011;3244;42.708;23.288;2023-01-28T04:52:52;4.77;;;4.47;;
6422;SDS011;3244;42.708;23.288;2023-01-28T04:55:19;8.33;;;5.10;;
6422;SDS011;3244;42.708;23.288;2023-01-28T04:57:47;4.67;;;4.27;;
6422;SDS011;3244;42.708;23.288;2023-01-28T05:00:14;4.57;;;4.17;;
6422;SDS011;3244;42.708;23.288;2023-01-28T05:02:41;4.90;;;4.50;;
6422;SDS011;3244;42.708;23.288;2023-01-28T05:05:08;5.57;;;4.37;;
6422;SDS011;3244;42.708;23.288;2023-01-28T05:07:35;4.80;;;4.40;;
6422;SDS011;3244;42.708;23.288;2023-01-28T05:10:02;6.27;;;5.23;;
6422;SDS011;3244;42.708;23.288;2023-01-28T05:12:29;5.70;;;5.20;;
6422;SDS011;3244;42.708;23.288;2023-01-28T05:14:58;5.27;;;4.83;;
6422;SDS011;3244;42.708;23.288;2023-01-28T05:17:25;4.93;;;4.53;;
6422;SDS011;3244;42.708;23.288;2023-01-28T05:19:52;5.00;;;4.53;;
6422;SDS011;3244;42.708;23.288;2023-01-28T05:22:19;5.50;;;5.03;;
6422;SDS011;3244;42.708;23.288;2023-01-28T05:24:46;4.13;;;3.83;;
6422;SDS011;3244;42.708;23.288;2023-01-28T05:27:12;5.63;;;5.00;;
6422;SDS011;3244;42.708;23.288;2023-01-28T05:29:39;5.07;;;4.67;;
6422;SDS011;3244;42.708;23.288;2023-01-28T05:32:07;5.23;;;4.77;;
6422;SDS011;3244;42.708;23.288;2023-01-28T05:34:34;7.07;;;5.40;;
6422;SDS011;3244;42.708;23.288;2023-01-28T05:37:01;5.47;;;5.07;;
6422;SDS011;3244;42.708;23.288;2023-01-28T05:39:28;5.13;;;4.60;;
6422;SDS011;3244;42.708;23.288;2023-01-28T05:41:55;5.10;;;4.70;;
6422;SDS011;3244;42.708;23.288;2023-01-28T05:44:22;6.07;;;5.57;;
6422;SDS011;3244;42.708;23.288;2023-01-28T05:46:49;5.50;;;5.10;;
6422;SDS011;3244;42.708;23.288;2023-01-28T05:49:17;5.20;;;4.80;;
6422;SDS011;3244;42.708;23.288;2023-01-28T05:51:43;5.30;;;4.80;;
6422;SDS011;3244;42.708;23.288;2023-01-28T05:54:12;5.97;;;4.67;;
6422;SDS011;3244;42.708;23.288;2023-01-28T05:56:39;4.60;;;4.30;;
6422;SDS011;3244;42.708;23.288;2023-01-28T05:59:05;4.90;;;4.50;;
6422;SDS011;3244;42.708;23.288;2023-01-28T06:01:34;4.13;;;3.90;;
6422;SDS011;3244;42.708;23.288;2023-01-28T06:04:01;5.10;;;4.73;;
6422;SDS011;3244;42.708;23.288;2023-01-28T06:06:29;5.70;;;5.03;;
6422;SDS011;3244;42.708;23.288;2023-01-28T06:08:56;5.43;;;5.00;;
6422;SDS011;3244;42.708;23.288;2023-01-28T06:11:23;5.90;;;5.40;;
6422;SDS011;3244;42.708;23.288;2023-01-28T06:13:49;5.23;;;4.83;;
6422;SDS011;3244;42.708;23.288;2023-01-28T06:16:16;4.90;;;4.50;;
6422;SDS011;3244;42.708;23.288;2023-01-28T06:18:43;11.50;;;9.13;;
6422;SDS011;3244;42.708;23.288;2023-01-28T06:21:09;10.00;;;7.17;;
6422;SDS011;3244;42.708;23.288;2023-01-28T06:23:38;6.43;;;5.83;;
6422;SDS011;3244;42.708;23.288;2023-01-28T06:26:04;6.47;;;5.87;;
6422;SDS011;3244;42.708;23.288;2023-01-28T06:28:31;6.50;;;5.90;;
6422;SDS011;3244;42.708;23.288;2023-01-28T06:30:58;6.47;;;5.97;;
6422;SDS011;3244;42.708;23.288;2023-01-28T06:33:24;7.20;;;6.17;;
6422;SDS011;3244;42.708;23.288;2023-01-28T06:35:53;6.67;;;6.07;;
6422;SDS011;3244;42.708;23.288;2023-01-28T06:38:19;6.17;;;5.73;;
6422;SDS011;3244;42.708;23.288;2023-01-28T06:40:51;5.57;;;5.10;;
6422;SDS011;3244;42.708;23.288;2023-01-28T06:43:19;6.37;;;5.87;;
6422;SDS011;3244;42.708;23.288;2023-01-28T06:45:51;6.17;;;5.67;;
6422;SDS011;3244;42.708;23.288;2023-01-28T06:48:18;6.33;;;5.60;;
6422;SDS011;3244;42.708;23.288;2023-01-28T06:50:45;5.77;;;5.27;;
6422;SDS011;3244;42.708;23.288;2023-01-28T06:53:12;6.50;;;6.00;;
6422;SDS011;3244;42.708;23.288;2023-01-28T06:55:39;6.50;;;5.90;;
6422;SDS011;3244;42.708;23.288;2023-01-28T06:58:07;7.07;;;6.40;;
6422;SDS011;3244;42.708;23.288;2023-01-28T07:00:34;6.43;;;5.93;;
6422;SDS011;3244;42.708;23.288;2023-01-28T07:03:01;6.20;;;5.60;;
6422;SDS011;3244;42.708;23.288;2023-01-28T07:05:28;6.70;;;6.20;;
6422;SDS011;3244;42.708;23.288;2023-01-28T07:07:55;6.53;;;5.93;;
6422;SDS011;3244;42.708;23.288;2023-01-28T07:10:21;7.03;;;6.33;;
6422;SDS011;3244;42.708;23.288;2023-01-28T07:12:48;9.80;;;6.90;;
6422;SDS011;3244;42.708;23.288;2023-01-28T07:15:16;9.63;;;6.83;;
6422;SDS011;3244;42.708;23.288;2023-01-28T07:17:43;8.10;;;5.77;;
6422;SDS011;3244;42.708;23.288;2023-01-28T07:20:11;6.70;;;6.10;;
6422;SDS011;3244;42.708;23.288;2023-01-28T07:22:40;7.63;;;6.87;;
6422;SDS011;3244;42.708;23.288;2023-01-28T07:25:07;7.20;;;6.23;;
6422;SDS011;3244;42.708;23.288;2023-01-28T07:27:36;10.67;;;8.53;;
6422;SDS011;3244;42.708;23.288;2023-01-28T07:30:03;7.43;;;6.60;;
6422;SDS011;3244;42.708;23.288;2023-01-28T07:32:31;14.87;;;10.00;;
6422;SDS011;3244;42.708;23.288;2023-01-28T07:34:58;7.90;;;7.10;;
6422;SDS011;3244;42.708;23.288;2023-01-28T07:37:25;7.37;;;6.77;;
6422;SDS011;3244;42.708;23.288;2023-01-28T07:39:51;8.20;;;7.50;;
6422;SDS011;3244;42.708;23.288;2023-01-28T07:42:18;7.40;;;6.77;;
6422;SDS011;3244;42.708;23.288;2023-01-28T07:44:45;9.63;;;7.17;;
6422;SDS011;3244;42.708;23.288;2023-01-28T07:47:12;7.50;;;6.90;;
6422;SDS011;3244;42.708;23.288;2023-01-28T07:49:40;6.83;;;6.23;;
6422;SDS011;3244;42.708;23.288;2023-01-28T07:52:06;7.23;;;6.63;;
6422;SDS011;3244;42.708;23.288;2023-01-28T07:54:34;8.27;;;7.47;;
6422;SDS011;3244;42.708;23.288;2023-01-28T07:57:00;7.50;;;6.80;;
6422;SDS011;3244;42.708;23.288;2023-01-28T07:59:30;7.27;;;6.57;;
6422;SDS011;3244;42.708;23.288;2023-01-28T08:01:56;7.60;;;6.90;;
6422;SDS011;3244;42.708;23.288;2023-01-28T08:04:25;7.47;;;6.77;;
6422;SDS011;3244;42.708;23.288;2023-01-28T08:06:53;6.63;;;6.03;;
6422;SDS011;3244;42.708;23.288;2023-01-28T08:09:21;6.23;;;5.63;;
6422;SDS011;3244;42.708;23.288;2023-01-28T08:11:47;7.40;;;6.47;;
6422;SDS011;3244;42.708;23.288;2023-01-28T08:14:14;7.60;;;6.93;;
6422;SDS011;3244;42.708;23.288;2023-01-28T08:16:41;8.53;;;7.67;;
6422;SDS011;3244;42.708;23.288;2023-01-28T08:19:07;7.73;;;6.73;;
6422;SDS011;3244;42.708;23.288;2023-01-28T08:21:35;6.70;;;6.20;;
6422;SDS011;3244;42.708;23.288;2023-01-28T08:24:03;7.03;;;6.40;;
6422;SDS011;3244;42.708;23.288;2023-01-28T08:26:30;6.57;;;5.83;;
6422;SDS011;3244;42.708;23.288;2023-01-28T08:28:57;6.80;;;6.13;;
6422;SDS011;3244;42.708;23.288;2023-01-28T08:31:24;6.77;;;6.03;;
6422;SDS011;3244;42.708;23.288;2023-01-28T08:33:50;6.77;;;6.13;;
6422;SDS011;3244;42.708;23.288;2023-01-28T08:36:17;7.00;;;6.30;;
6422;SDS011;3244;42.708;23.288;2023-01-28T08:38:44;7.20;;;6.50;;
6422;SDS011;3244;42.708;23.288;2023-01-28T08:41:12;8.03;;;7.23;;
6422;SDS011;3244;42.708;23.288;2023-01-28T08:43:39;6.83;;;6.23;;
6422;SDS011;3244;42.708;23.288;2023-01-28T08:46:05;16.53;;;10.30;;
6422;SDS011;3244;42.708;23.288;2023-01-28T08:48:32;13.53;;;10.37;;
6422;SDS011;3244;42.708;23.288;2023-01-28T08:50:59;7.47;;;6.20;;
6422;SDS011;3244;42.708;23.288;2023-01-28T08:53:26;6.63;;;6.07;;
6422;SDS011;3244;42.708;23.288;2023-01-28T08:55:52;5.70;;;5.20;;
6422;SDS011;3244;42.708;23.288;2023-01-28T08:58:20;7.03;;;6.33;;
6422;SDS011;3244;42.708;23.288;2023-01-28T09:00:47;7.27;;;6.57;;
6422;SDS011;3244;42.708;23.288;2023-01-28T09:03:14;7.73;;;7.03;;
6422;SDS011;3244;42.708;23.288;2023-01-28T09:05:41;7.03;;;6.37;;
6422;SDS011;3244;42.708;23.288;2023-01-28T09:08:09;6.30;;;5.63;;
6422;SDS011;3244;42.708;23.288;2023-01-28T09:10:38;7.00;;;6.40;;
6422;SDS011;3244;42.708;23.288;2023-01-28T09:13:06;9.10;;;6.93;;
6422;SDS011;3244;42.708;23.288;2023-01-28T09:15:35;7.10;;;6.50;;
6422;SDS011;3244;42.708;23.288;2023-01-28T09:18:03;9.45;;;8.35;;
6422;SDS011;3244;42.708;23.288;2023-01-28T09:20:30;7.83;;;7.10;;
6422;SDS011;3244;42.708;23.288;2023-01-28T09:22:57;7.30;;;6.47;;
6422;SDS011;3244;42.708;23.288;2023-01-28T09:25:24;10.60;;;8.97;;
6422;SDS011;3244;42.708;23.288;2023-01-28T09:27:51;12.03;;;8.23;;
6422;SDS011;3244;42.708;23.288;2023-01-28T09:30:17;9.70;;;7.40;;
6422;SDS011;3244;42.708;23.288;2023-01-28T09:32:48;7.87;;;6.63;;
6422;SDS011;3244;42.708;23.288;2023-01-28T09:35:15;6.87;;;6.27;;
6422;SDS011;3244;42.708;23.288;2023-01-28T09:37:43;5.87;;;5.47;;
6422;SDS011;3244;42.708;23.288;2023-01-28T09:40:11;7.23;;;6.53;;
6422;SDS011;3244;42.708;23.288;2023-01-28T09:42:49;6.97;;;6.27;;
6422;SDS011;3244;42.708;23.288;2023-01-28T09:45:27;7.47;;;6.77;;
6422;SDS011;3244;42.708;23.288;2023-01-28T09:48:00;6.47;;;5.87;;
6422;SDS011;3244;42.708;23.288;2023-01-28T09:50:31;6.83;;;6.13;;
6422;SDS011;3244;42.708;23.288;2023-01-28T09:53:01;8.63;;;6.80;;
6422;SDS011;3244;42.708;23.288;2023-01-28T09:55:32;7.35;;;6.75;;
6422;SDS011;3244;42.708;23.288;2023-01-28T09:58:03;7.97;;;6.30;;
6422;SDS011;3244;42.708;23.288;2023-01-28T10:00:32;14.87;;;10.10;;
6422;SDS011;3244;42.708;23.288;2023-01-28T10:03:20;8.90;;;7.97;;
6422;SDS011;3244;42.708;23.288;2023-01-28T10:05:56;7.50;;;6.60;;
6422;SDS011;3244;42.708;23.288;2023-01-28T10:08:37;9.88;;;7.85;;
6422;SDS011;3244;42.708;23.288;2023-01-28T10:11:19;10.50;;;7.20;;
6422;SDS011;3244;42.708;23.288;2023-01-28T10:13:51;9.50;;;6.78;;
6422;SDS011;3244;42.708;23.288;2023-01-28T10:16:27;7.93;;;7.17;;
6422;SDS011;3244;42.708;23.288;2023-01-28T10:19:01;9.77;;;8.10;;
6422;SDS011;3244;42.708;23.288;2023-01-28T10:21:33;8.17;;;7.23;;
6422;SDS011;3244;42.708;23.288;2023-01-28T10:24:05;8.80;;;7.90;;
6422;SDS011;3244;42.708;23.288;2023-01-28T10:26:37;8.47;;;7.57;;
6422;SDS011;3244;42.708;23.288;2023-01-28T10:29:10;8.73;;;7.83;;
6422;SDS011;3244;42.708;23.288;2023-01-28T10:31:40;11.30;;;7.43;;
6422;SDS011;3244;42.708;23.288;2023-01-28T10:34:17;7.83;;;7.13;;
6422;SDS011;3244;42.708;23.288;2023-01-28T10:36:44;7.30;;;6.67;;
6422;SDS011;3244;42.708;23.288;2023-01-28T10:39:11;8.07;;;7.27;;
6422;SDS011;3244;42.708;23.288;2023-01-28T10:41:40;8.63;;;7.67;;
6422;SDS011;3244;42.708;23.288;2023-01-28T10:44:08;7.70;;;6.90;;
6422;SDS011;3244;42.708;23.288;2023-01-28T10:46:42;7.43;;;6.67;;
6422;SDS011;3244;42.708;23.288;2023-01-28T10:49:12;6.80;;;6.20;;
6422;SDS011;3244;42.708;23.288;2023-01-28T10:51:43;8.10;;;7.23;;
6422;SDS011;3244;42.708;23.288;2023-01-28T10:54:17;7.40;;;6.70;;
6422;SDS011;3244;42.708;23.288;2023-01-28T10:56:46;9.38;;;7.20;;
6422;SDS011;3244;42.708;23.288;2023-01-28T10:59:18;7.60;;;6.83;;
6422;SDS011;3244;42.708;23.288;2023-01-28T11:01:48;7.17;;;5.93;;
6422;SDS011;3244;42.708;23.288;2023-01-28T11:04:18;8.32;;;6.38;;
6422;SDS011;3244;42.708;23.288;2023-01-28T11:06:53;8.88;;;6.15;;
6422;SDS011;3244;42.708;23.288;2023-01-28T11:09:22;7.75;;;7.05;;
6422;SDS011;3244;42.708;23.288;2023-01-28T11:11:50;8.23;;;6.40;;
6422;SDS011;3244;42.708;23.288;2023-01-28T11:14:18;6.80;;;6.20;;
6422;SDS011;3244;42.708;23.288;2023-01-28T11:16:45;6.40;;;5.87;;
6422;SDS011;3244;42.708;23.288;2023-01-28T11:19:12;6.60;;;6.00;;
6422;SDS011;3244;42.708;23.288;2023-01-28T11:21:40;7.70;;;6.90;;
6422;SDS011;3244;42.708;23.288;2023-01-28T11:24:17;7.63;;;7.03;;
6422;SDS011;3244;42.708;23.288;2023-01-28T11:26:48;8.17;;;6.67;;
6422;SDS011;3244;42.708;23.288;2023-01-28T11:29:19;6.60;;;6.10;;
6422;SDS011;3244;42.708;23.288;2023-01-28T11:31:49;6.20;;;5.63;;
6422;SDS011;3244;42.708;23.288;2023-01-28T11:34:16;6.03;;;5.53;;
6422;SDS011;3244;42.708;23.288;2023-01-28T11:36:54;6.20;;;5.63;;
6422;SDS011;3244;42.708;23.288;2023-01-28T11:39:28;8.00;;;6.75;;
6422;SDS011;3244;42.708;23.288;2023-01-28T11:42:02;6.20;;;5.60;;
6422;SDS011;3244;42.708;23.288;2023-01-28T11:44:37;7.43;;;6.43;;
6422;SDS011;3244;42.708;23.288;2023-01-28T11:47:15;7.87;;;6.83;;
6422;SDS011;3244;42.708;23.288;2023-01-28T11:49:54;6.60;;;5.77;;
6422;SDS011;3244;42.708;23.288;2023-01-28T11:52:36;7.93;;;5.80;;
6422;SDS011;3244;42.708;23.288;2023-01-28T11:55:20;6.10;;;5.60;;
6422;SDS011;3244;42.708;23.288;2023-01-28T11:57:57;6.00;;;5.50;;
6422;SDS011;3244;42.708;23.288;2023-01-28T12:00:37;8.63;;;5.70;;
6422;SDS011;3244;42.708;23.288;2023-01-28T12:03:17;6.17;;;5.67;;
6422;SDS011;3244;42.708;23.288;2023-01-28T12:05:55;5.90;;;5.30;;
6422;SDS011;3244;42.708;23.288;2023-01-28T12:08:32;6.57;;;5.93;;
6422;SDS011;3244;42.708;23.288;2023-01-28T12:11:11;6.67;;;5.90;;
6422;SDS011;3244;42.708;23.288;2023-01-28T12:14:12;5.53;;;5.00;;
6422;SDS011;3244;42.708;23.288;2023-01-28T12:16:50;7.20;;;6.10;;
6422;SDS011;3244;42.708;23.288;2023-01-28T12:22:25;5.95;;;5.35;;
6422;SDS011;3244;42.708;23.288;2023-01-28T12:25:15;5.83;;;5.33;;
6422;SDS011;3244;42.708;23.288;2023-01-28T12:27:53;20.33;;;10.90;;
6422;SDS011;3244;42.708;23.288;2023-01-28T12:30:32;8.13;;;7.03;;
6422;SDS011;3244;42.708;23.288;2023-01-28T12:33:13;7.50;;;6.77;;
6422;SDS011;3244;42.708;23.288;2023-01-28T12:35:58;7.17;;;6.47;;
6422;SDS011;3244;42.708;23.288;2023-01-28T12:38:37;6.53;;;5.93;;
6422;SDS011;3244;42.708;23.288;2023-01-28T12:41:10;6.70;;;6.00;;
6422;SDS011;3244;42.708;23.288;2023-01-28T12:43:48;13.63;;;8.77;;
6422;SDS011;3244;42.708;23.288;2023-01-28T12:46:25;8.07;;;7.25;;
6422;SDS011;3244;42.708;23.288;2023-01-28T12:48:58;8.40;;;7.60;;
6422;SDS011;3244;42.708;23.288;2023-01-28T12:51:31;7.40;;;6.70;;
6422;SDS011;3244;42.708;23.288;2023-01-28T12:54:05;7.97;;;7.00;;
6422;SDS011;3244;42.708;23.288;2023-01-28T12:56:39;7.60;;;6.90;;
6422;SDS011;3244;42.708;23.288;2023-01-28T12:59:11;7.63;;;6.93;;
6422;SDS011;3244;42.708;23.288;2023-01-28T13:01:42;8.50;;;7.70;;
6422;SDS011;3244;42.708;23.288;2023-01-28T13:04:15;7.40;;;6.50;;
6422;SDS011;3244;42.708;23.288;2023-01-28T13:06:49;6.90;;;6.20;;
6422;SDS011;3244;42.708;23.288;2023-01-28T13:09:20;8.33;;;7.03;;
6422;SDS011;3244;42.708;23.288;2023-01-28T13:11:50;8.40;;;7.13;;
6422;SDS011;3244;42.708;23.288;2023-01-28T13:14:21;7.10;;;6.37;;
6422;SDS011;3244;42.708;23.288;2023-01-28T13:16:51;8.00;;;6.97;;
6422;SDS011;3244;42.708;23.288;2023-01-28T13:19:22;7.00;;;6.40;;
6422;SDS011;3244;42.708;23.288;2023-01-28T13:21:51;9.20;;;8.18;;
6422;SDS011;3244;42.708;23.288;2023-01-28T13:24:19;7.67;;;7.03;;
6422;SDS011;3244;42.708;23.288;2023-01-28T13:26:49;6.80;;;6.20;;
6422;SDS011;3244;42.708;23.288;2023-01-28T13:29:18;7.00;;;6.37;;
6422;SDS011;3244;42.708;23.288;2023-01-28T13:31:54;7.05;;;6.45;;
6422;SDS011;3244;42.708;23.288;2023-01-28T13:37:15;6.43;;;5.57;;
6422;SDS011;3244;42.708;23.288;2023-01-28T13:39:47;6.57;;;5.97;;
6422;SDS011;3244;42.708;23.288;2023-01-28T13:42:20;7.50;;;6.77;;
6422;SDS011;3244;42.708;23.288;2023-01-28T13:44:50;8.37;;;7.33;;
6422;SDS011;3244;42.708;23.288;2023-01-28T13:47:22;7.67;;;7.03;;
6422;SDS011;3244;42.708;23.288;2023-01-28T13:49:55;7.57;;;6.87;;
6422;SDS011;3244;42.708;23.288;2023-01-28T13:52:26;7.05;;;6.40;;
6422;SDS011;3244;42.708;23.288;2023-01-28T13:54:55;7.13;;;6.47;;
6422;SDS011;3244;42.708;23.288;2023-01-28T13:57:45;7.28;;;6.57;;
6422;SDS011;3244;42.708;23.288;2023-01-28T14:00:46;7.90;;;6.90;;
6422;SDS011;3244;42.708;23.288;2023-01-28T14:03:42;7.10;;;6.40;;
6422;SDS011;3244;42.708;23.288;2023-01-28T14:09:43;9.50;;;7.63;;
6422;SDS011;3244;42.708;23.288;2023-01-28T14:12:22;7.93;;;7.23;;
6422;SDS011;3244;42.708;23.288;2023-01-28T14:15:13;6.70;;;6.10;;
6422;SDS011;3244;42.708;23.288;2023-01-28T14:17:52;7.80;;;7.00;;
6422;SDS011;3244;42.708;23.288;2023-01-28T14:20:21;10.10;;;8.63;;
6422;SDS011;3244;42.708;23.288;2023-01-28T14:22:51;12.00;;;7.63;;
6422;SDS011;3244;42.708;23.288;2023-01-28T14:25:28;10.10;;;7.87;;
6422;SDS011;3244;42.708;23.288;2023-01-28T14:28:12;7.90;;;7.10;;
6422;SDS011;3244;42.708;23.288;2023-01-28T14:30:46;7.57;;;6.87;;
6422;SDS011;3244;42.708;23.288;2023-01-28T14:33:20;7.23;;;6.37;;
6422;SDS011;3244;42.708;23.288;2023-01-28T14:35:48;8.73;;;7.17;;
6422;SDS011;3244;42.708;23.288;2023-01-28T14:38:16;8.37;;;7.30;;
6422;SDS011;3244;42.708;23.288;2023-01-28T14:40:47;8.63;;;7.73;;
6422;SDS011;3244;42.708;23.288;2023-01-28T14:43:17;8.00;;;7.40;;
6422;SDS011;3244;42.708;23.288;2023-01-28T14:45:54;6.87;;;6.27;;
6422;SDS011;3244;42.708;23.288;2023-01-28T14:48:35;10.20;;;8.10;;
6422;SDS011;3244;42.708;23.288;2023-01-28T14:51:13;6.90;;;6.27;;
6422;SDS011;3244;42.708;23.288;2023-01-28T14:56:54;8.83;;;7.03;;
6422;SDS011;3244;42.708;23.288;2023-01-28T14:59:37;6.43;;;5.90;;
6422;SDS011;3244;42.708;23.288;2023-01-28T15:02:16;5.93;;;5.43;;
6422;SDS011;3244;42.708;23.288;2023-01-28T15:04:45;6.10;;;5.43;;
6422;SDS011;3244;42.708;23.288;2023-01-28T15:07:16;7.17;;;6.57;;
6422;SDS011;3244;42.708;23.288;2023-01-28T15:09:45;7.30;;;6.53;;
6422;SDS011;3244;42.708;23.288;2023-01-28T15:12:12;7.53;;;6.70;;
6422;SDS011;3244;42.708;23.288;2023-01-28T15:14:40;7.73;;;7.00;;
6422;SDS011;3244;42.708;23.288;2023-01-28T15:17:13;8.83;;;7.93;;
6422;SDS011;3244;42.708;23.288;2023-01-28T15:19:50;7.33;;;6.63;;
6422;SDS011;3244;42.708;23.288;2023-01-28T15:22:20;7.53;;;6.83;;
6422;SDS011;3244;42.708;23.288;2023-01-28T15:24:51;6.67;;;6.07;;
6422;SDS011;3244;42.708;23.288;2023-01-28T15:27:22;10.23;;;8.17;;
6422;SDS011;3244;42.708;23.288;2023-01-28T15:29:53;9.53;;;8.53;;
6422;SDS011;3244;42.708;23.288;2023-01-28T15:32:22;18.40;;;10.50;;
6422;SDS011;3244;42.708;23.288;2023-01-28T15:34:52;9.57;;;8.47;;
6422;SDS011;3244;42.708;23.288;2023-01-28T15:37:20;8.60;;;7.20;;